Estación municipal de St. Hilari Sacalm (La Selva, Guilleries)

Consulta los datos en tiempo real de la estación municipal de St. Hilari Sacalm





Hora UTC 17:20
Temperatura 22.0 ºC
Humedad 71.3 %
Presión 1021.7 hPa
Pluja 0.0 mm
Velocidad viento 1.1 km/h
Dirección viento NNE
Radiación solar 52.0 W/m²

Webcam

Datos diarios 2026-08-31



Hora UTC (invierno +1h; verano +2h)
Temperatura (ºC) Humedad (%) Presión (hPa) Velocidad viento (km/h) Precipitación (mm) Radiación solar (W/m²)
Hora UTC Aire Humedad Presión Vel. Dir. Vel. Max Dir. Intent. máx 5 min. Rad. Sol.
00:05 20.9 49.6 1020.3 3.6 WNW 3.6 NW 0.0 0.1
00:10 20.9 49.9 1020.3 2.7 WNW 8.8 NW 0.0 0.1
00:15 20.8 50.7 1020.3 0.8 WNW 8.8 WNW 0.0 0.1
00:20 20.5 52.6 1020.3 0.2 WSW 11.5 WSW 0.0 0.1
00:25 19.8 55.2 1020.4 0.1 SSE 6.1 S 0.0 0.1
00:30 19.3 56.6 1020.4 0.0 NNE 0.0 S 0.0 0.1
00:35 19.1 57.8 1020.4 0.0 NNE 0.0 NNE 0.0 0.1
00:40 19.0 58.1 1020.4 0.0 NNE 0.0 NW 0.0 0.1
00:45 19.0 58.1 1020.3 0.0 NNE 0.0 SSW 0.0 0.1
00:50 18.9 59.1 1020.3 0.1 S 3.4 S 0.0 0.1
00:55 18.7 59.5 1020.4 0.0 NNE 0.0 SE 0.0 0.1
01:00 18.7 60.1 1020.4 0.0 NNE 0.0 E 0.0 0.1
01:05 18.6 60.5 1020.4 0.0 NNE 0.0 SE 0.0 0.1
01:10 18.5 60.6 1020.4 0.0 NNE 0.0 SSE 0.0 0.1
01:15 18.4 61.4 1020.4 0.0 NNE 0.0 SW 0.0 0.1
01:20 18.4 63.1 1020.5 0.0 NNE 0.0 S 0.0 0.1
01:25 18.5 63.8 1020.5 0.0 NNE 0.0 S 0.0 0.1
01:30 18.8 62.9 1020.5 0.0 NNE 0.0 S 0.0 0.1
01:35 19.0 62.3 1020.5 1.3 SE 6.1 SE 0.0 0.1
01:40 19.3 61.4 1020.5 0.2 SSE 6.1 SSE 0.0 0.1
01:45 19.4 61.0 1020.5 0.0 NNE 0.0 SE 0.0 0.1
01:50 19.4 61.4 1020.6 0.0 NNE 0.0 S 0.0 0.1
01:55 19.2 61.9 1020.6 0.0 NNE 0.0 S 0.0 0.1
02:00 18.9 62.3 1020.6 0.0 NNE 0.0 S 0.0 0.1
02:05 18.8 62.7 1020.6 0.0 NNE 0.0 SW 0.0 0.1
02:10 18.6 63.9 1020.6 0.0 NNE 0.0 SW 0.0 0.1
02:15 18.5 64.9 1020.6 0.0 NNE 0.0 SSW 0.0 0.1
02:20 18.6 64.6 1020.6 0.0 NNE 0.0 SSW 0.0 0.1
02:25 18.4 65.5 1020.6 0.0 NNE 0.0 SSW 0.0 0.1
02:30 18.1 66.1 1020.6 0.0 NNE 0.0 SW 0.0 0.1
02:35 18.0 66.9 1020.6 0.0 NNE 0.0 SW 0.0 0.1
02:40 18.0 67.1 1020.5 0.0 NNE 0.0 SW 0.0 0.1
02:45 17.9 68.0 1020.6 0.0 NNE 0.0 SW 0.0 0.1
02:50 17.9 67.9 1020.6 0.0 NNE 0.0 SSW 0.0 0.1
02:55 17.8 68.4 1020.6 0.0 NNE 0.0 SSW 0.0 0.1
03:00 17.6 69.4 1020.6 0.0 NNE 0.0 SSW 0.0 0.1
03:05 17.5 69.4 1020.6 0.8 W 6.1 W 0.0 0.1
03:10 17.4 69.8 1020.5 0.0 NNE 0.0 W 0.0 0.1
03:15 17.3 70.4 1020.6 0.0 NNE 0.0 NW 0.0 0.1
03:20 17.2 70.7 1020.5 0.0 NNE 0.0 SSE 0.0 0.1
03:25 17.5 70.0 1020.5 0.0 NNE 0.0 SSE 0.0 0.1
03:30 17.5 69.6 1020.6 0.0 NNE 0.0 SSW 0.0 0.1
03:35 17.4 70.2 1020.6 0.0 NNE 0.0 SW 0.0 0.1
03:40 17.5 70.5 1020.6 0.0 NNE 0.0 SSW 0.0 0.1
03:45 17.6 70.8 1020.6 0.0 NNE 0.0 SW 0.0 0.1
03:50 17.6 71.3 1020.6 0.0 NNE 0.0 SW 0.0 0.1
03:55 17.5 71.2 1020.6 0.0 NNE 0.0 SSW 0.0 0.1
04:00 17.3 72.4 1020.6 0.0 NNE 0.0 SW 0.0 0.1
04:05 17.2 73.3 1020.6 0.0 NNE 0.0 SW 0.0 0.1
04:10 17.1 74.2 1020.6 0.0 NNE 0.0 W 0.0 0.1
04:15 17.0 74.8 1020.6 0.0 NNE 0.0 SSW 0.0 0.1
04:20 16.9 74.4 1020.5 0.0 NNE 0.0 SSW 0.0 0.1
04:25 16.9 74.6 1020.5 0.0 NNE 0.0 SSW 0.0 0.2
04:30 16.9 75.0 1020.5 0.0 NNE 0.0 SSW 0.0 0.1
04:35 16.9 75.1 1020.6 0.0 NNE 0.0 SSW 0.0 0.1
04:40 17.0 75.1 1020.5 0.0 NNE 0.0 SSW 0.0 0.1
04:45 17.0 75.6 1020.5 0.0 NNE 0.0 SW 0.0 0.1
04:50 17.0 75.9 1020.6 0.0 NNE 0.0 SW 0.0 0.1
04:55 17.1 75.8 1020.5 0.0 NNE 0.0 SSW 0.0 0.2
05:00 17.1 75.7 1020.6 0.0 NNE 0.0 SSW 0.0 0.5
05:05 17.0 76.2 1020.5 0.0 NNE 0.0 SW 0.0 1.0
05:10 16.9 76.7 1020.6 0.0 NNE 0.0 SW 0.0 1.9
05:15 16.9 77.0 1020.6 0.0 NNE 0.0 SSW 0.0 3.2
05:20 16.8 77.4 1020.6 0.0 NNE 0.0 SSW 0.0 5.1
05:25 16.7 77.4 1020.7 0.0 NNE 0.0 SSW 0.0 7.6
05:30 16.7 77.8 1020.7 0.0 NNE 0.0 SSW 0.0 10.2
05:35 16.7 77.9 1020.8 0.0 NNE 0.0 S 0.0 13.4
05:40 16.7 77.8 1020.9 0.0 NNE 0.0 SSW 0.0 36.8
05:45 16.8 77.8 1020.9 0.0 NNE 0.0 SSW 0.0 51.5
05:50 17.2 76.5 1021.0 0.0 NNE 0.0 SSW 0.0 70.2
05:55 17.6 74.1 1020.9 0.0 NNE 0.0 ESE 0.0 83.6
06:00 18.6 69.0 1021.0 0.0 NNE 0.0 SE 0.0 97.3
06:05 19.3 66.7 1021.0 0.0 NNE 0.0 SE 0.0 110.5
06:10 19.6 65.2 1021.0 0.0 NNE 0.0 SE 0.0 124.1
06:15 20.2 61.7 1021.1 0.0 NNE 0.0 SE 0.0 138.2
06:20 20.9 57.7 1021.1 0.0 NNE 0.0 S 0.0 152.4
06:25 21.5 54.2 1021.1 0.0 NNE 0.0 ESE 0.0 167.1
06:30 21.9 52.4 1021.2 0.0 NNE 0.0 SE 0.0 181.8
06:35 22.0 51.1 1021.2 2.1 SE 8.8 ESE 0.0 196.3
06:40 22.1 50.6 1021.3 3.6 SE 8.8 SSE 0.0 211.7
06:45 22.3 49.9 1021.4 4.3 ESE 8.8 ESE 0.0 227.1
06:50 22.5 49.0 1021.4 0.8 ESE 8.8 ESE 0.0 242.6
06:55 22.6 48.5 1021.5 2.9 SE 8.8 SSE 0.0 258.0
07:00 22.5 49.1 1021.5 4.9 SE 14.2 ESE 0.0 273.1
07:05 22.5 49.6 1021.5 1.0 ESE 6.1 ESE 0.0 287.8
07:10 22.6 50.3 1021.5 4.4 SE 11.5 SE 0.0 302.5
07:15 22.6 52.2 1021.6 5.8 SE 14.2 ESE 0.0 317.9
07:20 22.5 54.1 1021.6 6.3 SE 11.5 SE 0.0 333.4
07:25 22.5 53.4 1021.7 7.7 SE 14.2 SE 0.0 348.1
07:30 22.6 52.6 1021.7 6.6 SSE 14.2 SSE 0.0 362.8
07:35 23.0 51.2 1021.7 6.4 SE 14.2 S 0.0 377.5
07:40 22.7 52.0 1021.7 7.2 SE 19.6 SE 0.0 392.4
07:45 22.7 53.0 1021.7 8.8 SE 16.9 ESE 0.0 406.4
07:50 22.8 54.1 1021.7 6.3 ESE 16.9 ESE 0.0 420.2
07:55 22.7 54.1 1021.7 9.5 SSE 19.6 ESE 0.0 395.5
08:00 22.3 56.2 1021.7 11.1 SE 16.9 SE 0.0 449.5
08:05 22.3 53.7 1021.8 8.6 SE 22.3 SE 0.0 464.3
08:10 22.6 54.1 1021.8 7.2 SE 19.6 SE 0.0 478.7
08:15 22.7 56.7 1021.9 9.0 SSE 19.6 S 0.0 493.5
08:20 22.6 56.8 1021.9 10.8 SE 19.6 S 0.0 507.3
08:25 22.4 57.2 1022.0 10.2 SE 25.0 SSE 0.0 520.1
08:30 22.7 56.9 1022.0 8.2 SE 22.3 SSE 0.0 533.0
08:35 23.0 57.1 1022.1 8.0 SE 16.9 ESE 0.0 545.7
08:40 23.0 58.1 1022.1 9.1 SE 19.6 ESE 0.0 557.4
08:45 23.2 58.2 1022.2 8.6 SSE 19.6 SE 0.0 569.2
08:50 23.3 58.3 1022.3 9.6 S 19.6 S 0.0 580.3
08:55 23.3 58.7 1022.3 10.6 ESE 19.6 E 0.0 592.2
09:00 23.2 58.9 1022.3 7.3 ESE 14.2 ESE 0.0 603.8
09:05 23.4 57.6 1022.2 8.8 SE 16.9 S 0.0 614.8
09:10 23.6 55.8 1022.3 9.5 SSE 19.6 S 0.0 625.4
09:15 23.7 56.2 1022.3 5.9 SSE 14.2 SSE 0.0 635.5
09:20 23.9 55.1 1022.4 6.9 SSE 14.2 E 0.0 647.0
09:25 24.0 55.2 1022.4 5.0 SE 11.5 ESE 0.0 657.9
09:30 24.2 54.3 1022.4 7.7 S 14.2 SE 0.0 667.9
09:35 24.5 53.3 1022.4 4.4 SSE 14.2 SE 0.0 676.4
09:40 24.5 52.8 1022.5 6.3 SSE 14.2 S 0.0 686.0
09:45 24.4 53.4 1022.4 8.2 SE 19.6 SE 0.0 694.8
09:50 24.3 53.7 1022.4 4.6 SSE 11.5 SE 0.0 700.2
09:55 24.7 52.6 1022.4 6.0 S 14.2 SSW 0.0 710.0
10:00 24.5 49.4 1022.4 1.4 SE 11.5 SSE 0.0 716.8
10:05 24.9 51.2 1022.4 1.1 SE 8.8 SSW 0.0 723.8
10:10 25.4 50.0 1022.4 6.2 SE 14.2 SSE 0.0 731.9
10:15 25.3 49.2 1022.4 6.8 SE 11.5 ESE 0.0 739.3
10:20 25.6 50.0 1022.4 6.5 SE 16.9 SE 0.0 744.7
10:25 25.6 49.7 1022.4 7.7 SSE 16.9 SE 0.0 750.4
10:30 26.5 46.7 1022.4 3.7 SE 11.5 SE 0.0 753.2
10:35 26.0 49.8 1022.4 7.9 SSE 19.6 SSE 0.0 759.0
10:40 25.6 51.1 1022.4 9.3 SSE 16.9 ESE 0.0 761.2
10:45 25.4 51.1 1022.4 1.9 SE 11.5 ESE 0.0 765.4
10:50 26.0 50.8 1022.4 3.7 ESE 11.5 ENE 0.0 774.0
10:55 26.0 50.7 1022.3 5.7 ESE 19.6 ESE 0.0 777.9
11:00 26.1 50.5 1022.3 6.7 SE 16.9 S 0.0 780.7
11:05 26.1 50.2 1022.3 7.2 SE 16.9 SSE 0.0 783.6
11:10 26.1 50.1 1022.2 6.1 SE 14.2 ESE 0.0 784.7
11:15 26.5 49.7 1022.2 7.7 SE 16.9 SE 0.0 787.2
11:20 26.3 50.4 1022.2 8.6 ESE 16.9 ENE 0.0 790.7
11:25 26.3 50.3 1022.2 2.7 ESE 11.5 SSE 0.0 791.3
11:30 26.3 50.7 1022.2 5.0 ESE 14.2 S 0.0 792.6
11:35 26.8 49.7 1022.1 2.5 ESE 11.5 ESE 0.0 794.3
11:40 26.7 50.0 1022.1 7.9 ESE 16.9 E 0.0 795.8
11:45 26.9 49.3 1022.1 2.3 SE 11.5 SE 0.0 702.7
11:50 26.7 50.0 1022.1 8.9 SE 19.6 SE 0.0 792.1
11:55 26.1 51.2 1022.0 5.7 SE 16.9 ESE 0.0 794.6
12:00 26.4 50.6 1022.0 5.5 ESE 16.9 ESE 0.0 802.0
12:05 26.9 49.3 1022.0 8.8 SSE 16.9 S 0.0 799.2
12:10 27.1 49.8 1021.9 3.9 SE 14.2 ENE 0.0 805.0
12:15 27.7 48.4 1021.8 7.0 S 16.9 SSW 0.0 816.0
12:20 27.6 48.9 1021.8 7.4 SSE 19.6 SSE 0.0 824.0
12:25 27.4 49.5 1021.8 7.5 SSE 16.9 SE 0.0 831.0
12:30 27.5 50.1 1021.8 3.6 SSE 14.2 SSE 0.0 826.0
12:35 27.6 49.4 1021.8 1.1 ESE 8.8 ESE 0.0 760.9
12:40 27.9 49.7 1021.7 6.9 SSE 16.9 SSE 0.0 786.9
12:45 28.2 49.1 1021.7 4.2 SSE 16.9 S 0.0 802.0
12:50 28.1 49.1 1021.7 10.0 SE 19.6 SE 0.0 817.0
12:55 27.6 50.5 1021.6 9.7 SSE 22.3 SSE 0.0 796.4
13:00 27.8 50.4 1021.6 7.1 SSE 14.2 SSW 0.0 773.7
13:05 27.7 51.1 1021.6 10.2 SE 19.6 SSE 0.0 703.2
13:10 27.6 52.5 1021.6 8.9 SE 27.7 SSE 0.0 526.6
13:15 27.4 54.0 1021.6 8.0 SE 19.6 S 0.0 616.6
13:20 27.1 54.4 1021.6 11.8 SE 22.3 ESE 0.0 542.2
13:25 26.5 55.9 1021.5 9.2 SE 16.9 SE 0.0 272.5
13:30 26.4 58.0 1021.5 7.0 ESE 16.9 ESE 0.0 632.5
13:35 26.8 56.9 1021.4 8.0 ESE 19.6 SE 0.0 784.1
13:40 27.1 55.7 1021.5 6.4 SE 14.2 SE 0.0 761.7
13:45 27.4 55.0 1021.4 8.5 SSE 16.9 ESE 0.0 787.7
13:50 27.4 54.7 1021.4 10.1 ESE 22.3 E 0.0 487.2
13:55 26.9 56.8 1021.4 6.3 ESE 14.2 SSE 0.0 424.3
14:00 26.8 57.4 1021.4 5.6 ESE 16.9 ESE 0.0 630.6
14:05 26.9 57.7 1021.4 6.9 ENE 19.6 ENE 0.0 657.0
14:10 27.1 57.2 1021.4 8.2 SSE 16.9 SE 0.0 649.9
14:15 27.2 57.7 1021.4 9.0 ESE 19.6 ENE 0.0 642.9
14:20 26.9 58.3 1021.4 12.1 ESE 25.0 ESE 0.0 381.5
14:25 26.5 60.2 1021.4 7.3 SE 22.3 SSE 0.0 188.4
14:30 26.2 61.0 1021.4 11.6 ESE 22.3 ENE 0.0 433.0
14:35 26.1 62.4 1021.4 14.9 ESE 25.0 SE 0.0 615.2
14:40 26.0 62.8 1021.4 9.1 ESE 22.3 SE 0.0 602.3
14:45 26.2 62.4 1021.4 11.9 ESE 22.3 ESE 0.0 413.1
14:50 25.8 63.8 1021.4 12.2 ESE 25.0 SE 0.0 396.7
14:55 25.7 64.4 1021.4 10.0 ESE 22.3 SE 0.0 587.2
15:00 25.9 64.1 1021.5 4.0 ESE 14.2 ESE 0.0 363.0
15:05 25.8 64.1 1021.4 7.1 E 22.3 E 0.0 322.4
15:10 25.3 65.3 1021.5 11.3 ESE 19.6 ESE 0.0 282.4
15:15 25.2 65.9 1021.5 10.4 E 19.6 SE 0.0 365.7
15:20 25.0 66.0 1021.6 10.7 E 19.6 ESE 0.0 491.6
15:25 24.9 66.5 1021.6 8.1 ESE 22.3 ESE 0.0 427.5
15:30 24.9 66.6 1021.6 7.2 E 14.2 SE 0.0 453.6
15:35 25.1 66.3 1021.6 5.3 E 22.3 ENE 0.0 440.2
15:40 24.6 66.9 1021.6 12.7 ESE 22.3 SSE 0.0 363.0
15:45 24.2 68.7 1021.6 8.4 E 19.6 ESE 0.0 400.1
15:50 24.3 68.5 1021.6 9.9 E 22.3 ESE 0.0 386.4
15:55 24.1 68.8 1021.6 8.4 ESE 22.3 ESE 0.0 371.7
16:00 24.0 68.9 1021.5 10.1 E 22.3 E 0.0 339.9
16:05 24.1 68.7 1021.6 10.8 ESE 19.6 E 0.0 270.7
16:10 23.8 69.5 1021.6 12.4 ESE 22.3 E 0.0 288.2
16:15 23.6 70.1 1021.5 8.3 ESE 22.3 E 0.0 286.9
16:20 23.6 70.0 1021.5 7.3 ESE 16.9 ENE 0.0 289.3
16:25 23.5 69.7 1021.5 11.9 ESE 19.6 E 0.0 221.2
16:30 23.4 69.8 1021.5 11.0 ESE 16.9 E 0.0 156.5
16:35 23.3 69.7 1021.5 8.8 E 19.6 E 0.0 58.4
16:40 23.2 69.7 1021.5 6.1 E 14.2 E 0.0 55.1
16:45 23.0 69.9 1021.6 10.2 ESE 22.3 E 0.0 47.8
16:50 22.8 70.2 1021.6 9.3 E 16.9 E 0.0 38.5
16:55 22.5 71.0 1021.5 7.9 E 16.9 ESE 0.0 42.1
17:00 22.5 70.9 1021.5 5.9 E 19.6 E 0.0 43.3
17:05 22.3 70.9 1021.6 7.6 E 14.2 ENE 0.0 38.5
17:10 22.2 70.8 1021.5 7.1 E 14.2 NE 0.0 30.2
17:15 22.2 70.2 1021.6 2.9 E 14.2 E 0.0 38.3
17:20 22.0 71.3 1021.7 1.1 NNE 8.8 NNE 0.0 52.0
Máxima 28.2 77.9 1022.5 14.9 ESE 27.7 SSE 0.0 831.0
Mínima 16.7 46.7 1020.3
Total 0.0